sensor_id;sensor_type;location;lat;lon;timestamp;pressure;altitude;pressure_sealevel;temperature;humidity
83185;BME280;73080;48.768;11.528;2023-10-13T00:02:00;97223.09;;;14.07;85.63
83185;BME280;73080;48.768;11.528;2023-10-13T00:04:26;97226.56;;;14.13;85.41
83185;BME280;73080;48.768;11.528;2023-10-13T00:06:52;97223.88;;;14.08;85.80
83185;BME280;73080;48.768;11.528;2023-10-13T00:09:17;97223.09;;;14.07;85.62
83185;BME280;73080;48.768;11.528;2023-10-13T00:11:43;97232.34;;;14.05;85.89
83185;BME280;73080;48.768;11.528;2023-10-13T00:14:08;97224.69;;;14.03;85.94
83185;BME280;73080;48.768;11.528;2023-10-13T00:16:33;97217.50;;;13.93;86.10
83185;BME280;73080;48.768;11.528;2023-10-13T00:18:59;97214.06;;;13.93;86.39
83185;BME280;73080;48.768;11.528;2023-10-13T00:21:24;97219.09;;;13.94;86.20
83185;BME280;73080;48.768;11.528;2023-10-13T00:23:49;97216.22;;;14.01;85.96
83185;BME280;73080;48.768;11.528;2023-10-13T00:26:15;97212.50;;;14.02;86.33
83185;BME280;73080;48.768;11.528;2023-10-13T00:28:40;97213.03;;;13.99;86.32
83185;BME280;73080;48.768;11.528;2023-10-13T00:31:05;97208.06;;;14.02;86.24
83185;BME280;73080;48.768;11.528;2023-10-13T00:33:30;97204.31;;;13.98;86.42
83185;BME280;73080;48.768;11.528;2023-10-13T00:35:56;97205.09;;;13.94;86.42
83185;BME280;73080;48.768;11.528;2023-10-13T00:38:21;97206.28;;;14.28;85.29
83185;BME280;73080;48.768;11.528;2023-10-13T00:40:46;97203.09;;;14.26;85.40
83185;BME280;73080;48.768;11.528;2023-10-13T00:43:12;97210.44;;;14.14;84.96
83185;BME280;73080;48.768;11.528;2023-10-13T00:45:37;97207.50;;;14.00;85.23
83185;BME280;73080;48.768;11.528;2023-10-13T00:48:03;97206.13;;;13.88;85.18
83185;BME280;73080;48.768;11.528;2023-10-13T00:50:29;97200.00;;;13.77;85.31
83185;BME280;73080;48.768;11.528;2023-10-13T00:52:54;97202.09;;;13.70;85.91
83185;BME280;73080;48.768;11.528;2023-10-13T00:55:21;97201.28;;;13.69;86.06
83185;BME280;73080;48.768;11.528;2023-10-13T00:57:46;97213.97;;;13.67;86.33
83185;BME280;73080;48.768;11.528;2023-10-13T01:00:12;97211.03;;;13.64;85.97
83185;BME280;73080;48.768;11.528;2023-10-13T01:02:37;97207.56;;;13.58;86.07
83185;BME280;73080;48.768;11.528;2023-10-13T01:05:07;97201.44;;;13.48;85.67
83185;BME280;73080;48.768;11.528;2023-10-13T01:07:32;97206.16;;;13.45;85.55
83185;BME280;73080;48.768;11.528;2023-10-13T01:09:58;97199.03;;;13.41;85.82
83185;BME280;73080;48.768;11.528;2023-10-13T01:12:23;97197.19;;;13.41;86.27
83185;BME280;73080;48.768;11.528;2023-10-13T01:14:48;97190.38;;;13.51;86.44
83185;BME280;73080;48.768;11.528;2023-10-13T01:17:14;97195.16;;;13.54;86.38
83185;BME280;73080;48.768;11.528;2023-10-13T01:19:39;97194.63;;;13.57;86.90
83185;BME280;73080;48.768;11.528;2023-10-13T01:22:04;97206.28;;;13.61;86.76
83185;BME280;73080;48.768;11.528;2023-10-13T01:24:30;97201.53;;;13.63;86.82
83185;BME280;73080;48.768;11.528;2023-10-13T01:26:56;97202.03;;;13.60;86.77
83185;BME280;73080;48.768;11.528;2023-10-13T01:29:21;97193.84;;;13.56;86.79
83185;BME280;73080;48.768;11.528;2023-10-13T01:31:46;97189.88;;;13.54;86.79
83185;BME280;73080;48.768;11.528;2023-10-13T01:34:16;97190.16;;;13.57;86.69
83185;BME280;73080;48.768;11.528;2023-10-13T01:36:42;97184.59;;;13.59;86.71
83185;BME280;73080;48.768;11.528;2023-10-13T01:39:08;97182.53;;;13.61;86.61
83185;BME280;73080;48.768;11.528;2023-10-13T01:41:33;97183.63;;;13.70;86.42
83185;BME280;73080;48.768;11.528;2023-10-13T01:43:58;97174.13;;;13.69;86.03
83185;BME280;73080;48.768;11.528;2023-10-13T01:46:23;97183.88;;;13.68;86.11
83185;BME280;73080;48.768;11.528;2023-10-13T01:48:49;97181.78;;;13.70;86.23
83185;BME280;73080;48.768;11.528;2023-10-13T01:51:14;97181.78;;;13.70;86.32
83185;BME280;73080;48.768;11.528;2023-10-13T01:53:40;97175.69;;;13.70;86.44
83185;BME280;73080;48.768;11.528;2023-10-13T01:56:06;97178.88;;;13.72;86.32
83185;BME280;73080;48.768;11.528;2023-10-13T01:58:34;97182.59;;;13.76;86.19
83185;BME280;73080;48.768;11.528;2023-10-13T02:00:59;97169.66;;;13.74;86.01
83185;BME280;73080;48.768;11.528;2023-10-13T02:03:25;97176.19;;;13.62;84.17
83185;BME280;73080;48.768;11.528;2023-10-13T02:05:50;97172.97;;;13.50;84.71
83185;BME280;73080;48.768;11.528;2023-10-13T02:08:19;97182.22;;;13.57;84.66
83185;BME280;73080;48.768;11.528;2023-10-13T02:10:45;97170.06;;;13.51;84.95
83185;BME280;73080;48.768;11.528;2023-10-13T02:13:14;97177.75;;;13.58;84.85
83185;BME280;73080;48.768;11.528;2023-10-13T02:15:40;97179.25;;;13.43;85.19
83185;BME280;73080;48.768;11.528;2023-10-13T02:18:05;97184.72;;;13.32;85.44
83185;BME280;73080;48.768;11.528;2023-10-13T02:20:30;97185.44;;;13.22;86.49
83185;BME280;73080;48.768;11.528;2023-10-13T02:22:56;97186.72;;;13.19;87.02
83185;BME280;73080;48.768;11.528;2023-10-13T02:25:21;97184.91;;;13.20;87.16
83185;BME280;73080;48.768;11.528;2023-10-13T02:27:46;97187.81;;;13.24;87.36
83185;BME280;73080;48.768;11.528;2023-10-13T02:30:12;97185.53;;;13.32;87.20
83185;BME280;73080;48.768;11.528;2023-10-13T02:32:37;97173.44;;;13.41;86.90
83185;BME280;73080;48.768;11.528;2023-10-13T02:35:03;97185.13;;;13.56;86.23
83185;BME280;73080;48.768;11.528;2023-10-13T02:37:28;97181.81;;;13.76;85.23
83185;BME280;73080;48.768;11.528;2023-10-13T02:39:53;97173.88;;;13.81;84.82
83185;BME280;73080;48.768;11.528;2023-10-13T02:42:19;97185.03;;;13.93;84.29
83185;BME280;73080;48.768;11.528;2023-10-13T02:44:44;97178.47;;;13.95;84.10
83185;BME280;73080;48.768;11.528;2023-10-13T02:47:09;97180.03;;;13.96;84.05
83185;BME280;73080;48.768;11.528;2023-10-13T02:49:34;97181.56;;;13.87;84.86
83185;BME280;73080;48.768;11.528;2023-10-13T02:52:00;97181.34;;;13.94;84.45
83185;BME280;73080;48.768;11.528;2023-10-13T02:54:25;97180.50;;;13.88;84.71
83185;BME280;73080;48.768;11.528;2023-10-13T02:56:51;97173.50;;;13.52;86.17
83185;BME280;73080;48.768;11.528;2023-10-13T02:59:16;97171.81;;;13.35;87.49
83185;BME280;73080;48.768;11.528;2023-10-13T03:01:41;97179.16;;;13.28;87.45
83185;BME280;73080;48.768;11.528;2023-10-13T03:04:07;97175.03;;;13.10;88.82
83185;BME280;73080;48.768;11.528;2023-10-13T03:06:32;97181.00;;;13.28;88.39
83185;BME280;73080;48.768;11.528;2023-10-13T03:09:03;97179.97;;;13.29;88.15
83185;BME280;73080;48.768;11.528;2023-10-13T03:11:28;97174.09;;;13.22;89.04
83185;BME280;73080;48.768;11.528;2023-10-13T03:13:54;97179.16;;;13.28;89.24
83185;BME280;73080;48.768;11.528;2023-10-13T03:16:19;97172.16;;;13.49;88.53
83185;BME280;73080;48.768;11.528;2023-10-13T03:18:47;97165.97;;;13.76;87.57
83185;BME280;73080;48.768;11.528;2023-10-13T03:21:14;97164.09;;;13.71;87.36
83185;BME280;73080;48.768;11.528;2023-10-13T03:23:40;97158.22;;;13.59;87.80
83185;BME280;73080;48.768;11.528;2023-10-13T03:26:09;97164.28;;;13.54;87.97
83185;BME280;73080;48.768;11.528;2023-10-13T03:28:34;97159.88;;;13.70;87.60
83185;BME280;73080;48.768;11.528;2023-10-13T03:30:59;97169.91;;;13.73;87.15
83185;BME280;73080;48.768;11.528;2023-10-13T03:33:25;97168.31;;;13.72;86.97
83185;BME280;73080;48.768;11.528;2023-10-13T03:35:50;97155.44;;;13.86;86.36
83185;BME280;73080;48.768;11.528;2023-10-13T03:38:15;97150.97;;;13.86;86.05
83185;BME280;73080;48.768;11.528;2023-10-13T03:40:40;97159.47;;;14.09;84.77
83185;BME280;73080;48.768;11.528;2023-10-13T03:43:06;97154.47;;;14.07;84.71
83185;BME280;73080;48.768;11.528;2023-10-13T03:45:38;97156.03;;;14.03;84.34
83185;BME280;73080;48.768;11.528;2023-10-13T03:48:17;97150.22;;;14.01;84.24
83185;BME280;73080;48.768;11.528;2023-10-13T03:50:42;97144.44;;;14.14;84.39
83185;BME280;73080;48.768;11.528;2023-10-13T03:53:07;97141.00;;;14.09;84.60
83185;BME280;73080;48.768;11.528;2023-10-13T03:55:33;97135.19;;;14.07;84.44
83185;BME280;73080;48.768;11.528;2023-10-13T03:57:58;97136.78;;;14.23;84.29
83185;BME280;73080;48.768;11.528;2023-10-13T04:00:24;97140.50;;;14.17;84.17
83185;BME280;73080;48.768;11.528;2023-10-13T04:02:50;97147.91;;;14.30;84.46
83185;BME280;73080;48.768;11.528;2023-10-13T04:05:15;97147.03;;;13.99;84.04
83185;BME280;73080;48.768;11.528;2023-10-13T04:07:41;97135.22;;;13.44;85.61
83185;BME280;73080;48.768;11.528;2023-10-13T04:10:07;97143.31;;;13.27;84.75
83185;BME280;73080;48.768;11.528;2023-10-13T04:12:32;97146.28;;;13.41;86.25
83185;BME280;73080;48.768;11.528;2023-10-13T04:14:58;97140.09;;;13.67;86.72
83185;BME280;73080;48.768;11.528;2023-10-13T04:17:24;97139.19;;;13.52;86.52
83185;BME280;73080;48.768;11.528;2023-10-13T04:19:50;97142.63;;;13.47;86.25
83185;BME280;73080;48.768;11.528;2023-10-13T04:22:16;97147.81;;;13.37;86.16
83185;BME280;73080;48.768;11.528;2023-10-13T04:24:41;97142.03;;;13.35;86.58
83185;BME280;73080;48.768;11.528;2023-10-13T04:27:06;97129.47;;;13.15;86.67
83185;BME280;73080;48.768;11.528;2023-10-13T04:29:32;97142.84;;;13.03;87.07
83185;BME280;73080;48.768;11.528;2023-10-13T04:31:57;97126.56;;;13.11;87.38
83185;BME280;73080;48.768;11.528;2023-10-13T04:34:22;97133.91;;;13.46;87.03
83185;BME280;73080;48.768;11.528;2023-10-13T04:36:48;97130.50;;;13.51;87.06
83185;BME280;73080;48.768;11.528;2023-10-13T04:39:13;97131.34;;;13.62;86.48
83185;BME280;73080;48.768;11.528;2023-10-13T04:41:39;97133.38;;;13.44;84.76
83185;BME280;73080;48.768;11.528;2023-10-13T04:44:10;97131.50;;;13.40;85.01
83185;BME280;73080;48.768;11.528;2023-10-13T04:46:36;97133.66;;;13.48;83.96
83185;BME280;73080;48.768;11.528;2023-10-13T04:49:01;97126.44;;;13.28;84.47
83185;BME280;73080;48.768;11.528;2023-10-13T04:51:27;97130.16;;;13.32;84.21
83185;BME280;73080;48.768;11.528;2023-10-13T04:53:52;97125.00;;;13.15;84.60
83185;BME280;73080;48.768;11.528;2023-10-13T04:56:17;97132.56;;;13.02;85.11
83185;BME280;73080;48.768;11.528;2023-10-13T04:58:42;97133.50;;;12.85;85.74
83185;BME280;73080;48.768;11.528;2023-10-13T05:01:08;97124.59;;;12.97;85.28
83185;BME280;73080;48.768;11.528;2023-10-13T05:03:33;97127.34;;;12.75;85.88
83185;BME280;73080;48.768;11.528;2023-10-13T05:05:58;97121.78;;;13.08;84.76
83185;BME280;73080;48.768;11.528;2023-10-13T05:08:23;97125.34;;;13.24;84.26
83185;BME280;73080;48.768;11.528;2023-10-13T05:10:49;97128.53;;;13.26;84.14
83185;BME280;73080;48.768;11.528;2023-10-13T05:13:14;97129.47;;;13.15;83.89
83185;BME280;73080;48.768;11.528;2023-10-13T05:15:57;97125.59;;;13.23;83.26
83185;BME280;73080;48.768;11.528;2023-10-13T05:18:23;97120.81;;;13.19;83.04
83185;BME280;73080;48.768;11.528;2023-10-13T05:20:48;97137.50;;;13.25;82.73
83185;BME280;73080;48.768;11.528;2023-10-13T05:23:13;97132.88;;;13.10;83.31
83185;BME280;73080;48.768;11.528;2023-10-13T05:25:39;97130.13;;;12.95;84.30
83185;BME280;73080;48.768;11.528;2023-10-13T05:28:04;97131.03;;;12.74;84.34
83185;BME280;73080;48.768;11.528;2023-10-13T05:30:29;97130.81;;;12.80;84.05
83185;BME280;73080;48.768;11.528;2023-10-13T05:32:57;97136.09;;;12.80;84.01
83185;BME280;73080;48.768;11.528;2023-10-13T05:35:23;97136.75;;;12.98;81.85
83185;BME280;73080;48.768;11.528;2023-10-13T05:37:49;97139.25;;;12.77;83.56
83185;BME280;73080;48.768;11.528;2023-10-13T05:40:14;97145.81;;;12.16;84.79
83185;BME280;73080;48.768;11.528;2023-10-13T05:42:39;97136.59;;;11.91;86.61
83185;BME280;73080;48.768;11.528;2023-10-13T05:45:05;97142.94;;;11.73;87.86
83185;BME280;73080;48.768;11.528;2023-10-13T05:47:30;97147.91;;;12.19;86.99
83185;BME280;73080;48.768;11.528;2023-10-13T05:49:56;97151.53;;;12.34;87.98
83185;BME280;73080;48.768;11.528;2023-10-13T05:52:21;97135.53;;;12.46;86.11
83185;BME280;73080;48.768;11.528;2023-10-13T05:54:47;97144.19;;;12.69;83.76
83185;BME280;73080;48.768;11.528;2023-10-13T05:57:12;97138.72;;;12.80;83.11
83185;BME280;73080;48.768;11.528;2023-10-13T05:59:38;97148.59;;;12.95;81.33
83185;BME280;73080;48.768;11.528;2023-10-13T06:02:03;97153.53;;;12.86;81.71
83185;BME280;73080;48.768;11.528;2023-10-13T06:04:28;97151.44;;;12.88;81.20
83185;BME280;73080;48.768;11.528;2023-10-13T06:06:54;97149.53;;;12.79;82.39
83185;BME280;73080;48.768;11.528;2023-10-13T06:09:19;97147.81;;;12.62;82.86
83185;BME280;73080;48.768;11.528;2023-10-13T06:11:44;97151.25;;;12.63;82.41
83185;BME280;73080;48.768;11.528;2023-10-13T06:14:09;97153.25;;;12.83;81.22
83185;BME280;73080;48.768;11.528;2023-10-13T06:16:35;97151.75;;;13.29;79.67
83185;BME280;73080;48.768;11.528;2023-10-13T06:19:00;97157.16;;;13.12;80.85
83185;BME280;73080;48.768;11.528;2023-10-13T06:21:26;97155.66;;;13.22;80.19
83185;BME280;73080;48.768;11.528;2023-10-13T06:23:51;97158.44;;;13.05;80.37
83185;BME280;73080;48.768;11.528;2023-10-13T06:26:17;97158.69;;;13.08;80.14
83185;BME280;73080;48.768;11.528;2023-10-13T06:28:42;97156.84;;;13.09;80.40
83185;BME280;73080;48.768;11.528;2023-10-13T06:31:08;97152.53;;;13.30;79.29
83185;BME280;73080;48.768;11.528;2023-10-13T06:33:34;97160.84;;;13.16;79.74
83185;BME280;73080;48.768;11.528;2023-10-13T06:36:03;97162.38;;;13.39;79.68
83185;BME280;73080;48.768;11.528;2023-10-13T06:38:29;97161.31;;;13.45;79.54
83185;BME280;73080;48.768;11.528;2023-10-13T06:40:55;97158.19;;;13.49;78.75
83185;BME280;73080;48.768;11.528;2023-10-13T06:43:20;97161.72;;;13.69;78.09
83185;BME280;73080;48.768;11.528;2023-10-13T06:45:46;97161.59;;;14.12;75.69
83185;BME280;73080;48.768;11.528;2023-10-13T06:48:12;97157.22;;;14.48;73.64
83185;BME280;73080;48.768;11.528;2023-10-13T06:50:38;97153.00;;;14.52;73.44
83185;BME280;73080;48.768;11.528;2023-10-13T06:53:03;97164.91;;;14.90;73.36
83185;BME280;73080;48.768;11.528;2023-10-13T06:55:28;97170.44;;;15.29;71.80
83185;BME280;73080;48.768;11.528;2023-10-13T06:57:54;97166.94;;;15.64;70.35
83185;BME280;73080;48.768;11.528;2023-10-13T07:00:20;97165.84;;;15.50;70.81
83185;BME280;73080;48.768;11.528;2023-10-13T07:02:46;97164.47;;;15.83;68.74
83185;BME280;73080;48.768;11.528;2023-10-13T07:05:12;97171.25;;;16.05;69.90
83185;BME280;73080;48.768;11.528;2023-10-13T07:07:40;97169.53;;;16.68;66.11
83185;BME280;73080;48.768;11.528;2023-10-13T07:10:10;97168.31;;;16.95;64.14
83185;BME280;73080;48.768;11.528;2023-10-13T07:12:37;97171.44;;;17.02;65.87
83185;BME280;73080;48.768;11.528;2023-10-13T07:15:02;97174.25;;;17.40;64.76
83185;BME280;73080;48.768;11.528;2023-10-13T07:17:27;97187.00;;;17.14;67.63
83185;BME280;73080;48.768;11.528;2023-10-13T07:19:54;97184.69;;;17.02;69.23
83185;BME280;73080;48.768;11.528;2023-10-13T07:22:19;97186.84;;;17.00;69.39
83185;BME280;73080;48.768;11.528;2023-10-13T07:24:49;97184.06;;;17.15;68.92
83185;BME280;73080;48.768;11.528;2023-10-13T07:27:22;97189.59;;;17.48;66.46
83185;BME280;73080;48.768;11.528;2023-10-13T07:29:47;97185.03;;;18.01;64.85
83185;BME280;73080;48.768;11.528;2023-10-13T07:32:12;97192.25;;;18.38;63.83
83185;BME280;73080;48.768;11.528;2023-10-13T07:34:38;97181.25;;;18.45;62.98
83185;BME280;73080;48.768;11.528;2023-10-13T07:37:06;97184.59;;;18.75;62.63
83185;BME280;73080;48.768;11.528;2023-10-13T07:39:31;97190.97;;;18.92;59.28
83185;BME280;73080;48.768;11.528;2023-10-13T07:41:57;97184.50;;;18.61;57.52
83185;BME280;73080;48.768;11.528;2023-10-13T07:44:22;97197.41;;;18.30;59.39
83185;BME280;73080;48.768;11.528;2023-10-13T07:46:47;97181.38;;;18.16;60.58
83185;BME280;73080;48.768;11.528;2023-10-13T07:49:13;97181.09;;;18.18;61.60
83185;BME280;73080;48.768;11.528;2023-10-13T07:51:38;97191.38;;;18.05;61.94
83185;BME280;73080;48.768;11.528;2023-10-13T07:54:03;97184.50;;;18.42;61.52
83185;BME280;73080;48.768;11.528;2023-10-13T07:56:29;97179.81;;;18.15;61.92
83185;BME280;73080;48.768;11.528;2023-10-13T07:58:54;97173.09;;;18.42;61.49
83185;BME280;73080;48.768;11.528;2023-10-13T08:01:19;97178.16;;;18.38;61.84
83185;BME280;73080;48.768;11.528;2023-10-13T08:03:45;97175.00;;;18.36;61.19
83185;BME280;73080;48.768;11.528;2023-10-13T08:06:16;97175.97;;;18.02;60.26
83185;BME280;73080;48.768;11.528;2023-10-13T08:08:42;97182.91;;;18.22;62.05
83185;BME280;73080;48.768;11.528;2023-10-13T08:11:09;97182.47;;;18.90;58.34
83185;BME280;73080;48.768;11.528;2023-10-13T08:13:35;97171.09;;;19.04;57.35
83185;BME280;73080;48.768;11.528;2023-10-13T08:16:01;97173.44;;;18.73;58.64
83185;BME280;73080;48.768;11.528;2023-10-13T08:18:26;97174.03;;;18.70;59.38
83185;BME280;73080;48.768;11.528;2023-10-13T08:20:52;97169.41;;;19.08;56.17
83185;BME280;73080;48.768;11.528;2023-10-13T08:23:17;97168.84;;;18.78;57.07
83185;BME280;73080;48.768;11.528;2023-10-13T08:25:43;97167.81;;;18.74;57.29
83185;BME280;73080;48.768;11.528;2023-10-13T08:28:08;97166.38;;;18.44;58.62
83185;BME280;73080;48.768;11.528;2023-10-13T08:30:33;97164.75;;;18.48;59.33
83185;BME280;73080;48.768;11.528;2023-10-13T08:32:59;97161.00;;;18.49;58.99
83185;BME280;73080;48.768;11.528;2023-10-13T08:35:26;97163.31;;;18.56;60.20
83185;BME280;73080;48.768;11.528;2023-10-13T08:37:51;97157.69;;;18.57;59.58
83185;BME280;73080;48.768;11.528;2023-10-13T08:40:16;97160.47;;;19.04;58.87
83185;BME280;73080;48.768;11.528;2023-10-13T08:42:43;97162.50;;;18.74;58.33
83185;BME280;73080;48.768;11.528;2023-10-13T08:47:36;97161.75;;;19.66;57.37
83185;BME280;73080;48.768;11.528;2023-10-13T08:50:03;97162.94;;;19.60;57.46
83185;BME280;73080;48.768;11.528;2023-10-13T08:52:29;97165.47;;;20.07;58.19
83185;BME280;73080;48.768;11.528;2023-10-13T08:54:56;97163.09;;;20.05;54.89
83185;BME280;73080;48.768;11.528;2023-10-13T08:57:22;97159.34;;;20.06;54.53
83185;BME280;73080;48.768;11.528;2023-10-13T08:59:47;97168.16;;;20.29;53.55
83185;BME280;73080;48.768;11.528;2023-10-13T09:02:14;97164.19;;;19.90;55.85
83185;BME280;73080;48.768;11.528;2023-10-13T09:04:42;97162.09;;;20.01;54.47
83185;BME280;73080;48.768;11.528;2023-10-13T09:07:07;97156.22;;;19.90;55.11
83185;BME280;73080;48.768;11.528;2023-10-13T09:14:37;97146.88;;;20.65;53.40
83185;BME280;73080;48.768;11.528;2023-10-13T09:17:06;97147.41;;;20.53;52.49
83185;BME280;73080;48.768;11.528;2023-10-13T09:19:31;97138.72;;;21.15;50.94
83185;BME280;73080;48.768;11.528;2023-10-13T09:21:57;97144.06;;;20.70;51.02
83185;BME280;73080;48.768;11.528;2023-10-13T09:24:22;97150.63;;;20.87;51.44
83185;BME280;73080;48.768;11.528;2023-10-13T09:26:50;97135.75;;;20.94;50.04
83185;BME280;73080;48.768;11.528;2023-10-13T09:29:18;97140.50;;;20.52;46.77
83185;BME280;73080;48.768;11.528;2023-10-13T09:31:47;97139.03;;;21.45;47.68
83185;BME280;73080;48.768;11.528;2023-10-13T09:34:22;97138.75;;;21.55;46.11
83185;BME280;73080;48.768;11.528;2023-10-13T09:36:47;97132.94;;;21.61;46.27
83185;BME280;73080;48.768;11.528;2023-10-13T09:39:17;97129.69;;;21.73;45.88
83185;BME280;73080;48.768;11.528;2023-10-13T09:41:42;97129.50;;;21.70;46.80
83185;BME280;73080;48.768;11.528;2023-10-13T09:44:08;97128.06;;;21.63;46.54
83185;BME280;73080;48.768;11.528;2023-10-13T09:46:35;97126.97;;;22.22;45.73
83185;BME280;73080;48.768;11.528;2023-10-13T09:49:11;97128.38;;;22.19;45.67
83185;BME280;73080;48.768;11.528;2023-10-13T09:51:40;97128.69;;;22.87;43.26
83185;BME280;73080;48.768;11.528;2023-10-13T09:54:20;97112.19;;;22.33;42.56
83185;BME280;73080;48.768;11.528;2023-10-13T09:56:50;97109.66;;;22.19;43.84
83185;BME280;73080;48.768;11.528;2023-10-13T09:59:19;97115.94;;;22.75;43.01
83185;BME280;73080;48.768;11.528;2023-10-13T10:01:46;97109.81;;;22.92;42.25
83185;BME280;73080;48.768;11.528;2023-10-13T10:04:14;97105.53;;;22.82;41.94
83185;BME280;73080;48.768;11.528;2023-10-13T10:06:39;97111.88;;;23.33;42.26
83185;BME280;73080;48.768;11.528;2023-10-13T10:09:08;97103.19;;;23.36;39.55
83185;BME280;73080;48.768;11.528;2023-10-13T10:11:52;97112.00;;;23.37;39.44
83185;BME280;73080;48.768;11.528;2023-10-13T10:14:28;97106.69;;;23.28;40.34
83185;BME280;73080;48.768;11.528;2023-10-13T10:17:14;97102.81;;;23.46;38.63
83185;BME280;73080;48.768;11.528;2023-10-13T10:19:50;97107.38;;;23.54;37.78
83185;BME280;73080;48.768;11.528;2023-10-13T10:22:36;97094.75;;;23.17;37.42
83185;BME280;73080;48.768;11.528;2023-10-13T10:25:03;97099.91;;;23.69;39.36
83185;BME280;73080;48.768;11.528;2023-10-13T10:27:30;97099.34;;;23.54;36.90
83185;BME280;73080;48.768;11.528;2023-10-13T10:29:56;97094.06;;;23.67;37.36
83185;BME280;73080;48.768;11.528;2023-10-13T10:32:37;97089.50;;;23.29;36.54
83185;BME280;73080;48.768;11.528;2023-10-13T10:35:07;97084.91;;;23.76;36.88
83185;BME280;73080;48.768;11.528;2023-10-13T10:37:34;97078.25;;;23.74;35.44
83185;BME280;73080;48.768;11.528;2023-10-13T10:40:00;97081.97;;;23.90;35.93
83185;BME280;73080;48.768;11.528;2023-10-13T10:42:26;97081.72;;;24.25;34.75
83185;BME280;73080;48.768;11.528;2023-10-13T10:44:51;97069.09;;;23.75;34.68
83185;BME280;73080;48.768;11.528;2023-10-13T10:47:16;97069.47;;;24.15;34.89
83185;BME280;73080;48.768;11.528;2023-10-13T10:49:42;97060.50;;;24.32;34.70
83185;BME280;73080;48.768;11.528;2023-10-13T10:52:09;97067.44;;;24.54;35.24
83185;BME280;73080;48.768;11.528;2023-10-13T10:54:35;97058.56;;;24.74;33.98
83185;BME280;73080;48.768;11.528;2023-10-13T10:57:01;97056.19;;;24.73;33.67
83185;BME280;73080;48.768;11.528;2023-10-13T10:59:34;97046.31;;;24.10;33.58
83185;BME280;73080;48.768;11.528;2023-10-13T11:01:59;97038.72;;;24.33;33.38
83185;BME280;73080;48.768;11.528;2023-10-13T11:04:24;97035.63;;;25.01;33.53
83185;BME280;73080;48.768;11.528;2023-10-13T11:06:51;97033.41;;;24.91;33.94
83185;BME280;73080;48.768;11.528;2023-10-13T11:09:34;97025.63;;;25.10;33.60
83185;BME280;73080;48.768;11.528;2023-10-13T11:14:31;97017.56;;;25.99;30.71
83185;BME280;73080;48.768;11.528;2023-10-13T11:16:58;97005.44;;;25.41;30.93
83185;BME280;73080;48.768;11.528;2023-10-13T11:19:39;97001.41;;;25.35;31.42
83185;BME280;73080;48.768;11.528;2023-10-13T11:24:41;97004.56;;;25.12;31.26
83185;BME280;73080;48.768;11.528;2023-10-13T11:27:16;96994.66;;;24.92;30.47
83185;BME280;73080;48.768;11.528;2023-10-13T11:29:41;96995.25;;;25.22;30.38
83185;BME280;73080;48.768;11.528;2023-10-13T11:32:07;96977.22;;;25.47;30.88
83185;BME280;73080;48.768;11.528;2023-10-13T11:34:32;96984.78;;;25.69;29.17
83185;BME280;73080;48.768;11.528;2023-10-13T11:36:58;96978.41;;;25.62;29.36
83185;BME280;73080;48.768;11.528;2023-10-13T11:39:23;96976.31;;;25.55;29.06
83185;BME280;73080;48.768;11.528;2023-10-13T11:41:49;96968.41;;;25.87;29.25
83185;BME280;73080;48.768;11.528;2023-10-13T11:44:14;96960.94;;;25.68;29.17
83185;BME280;73080;48.768;11.528;2023-10-13T11:46:39;96967.22;;;25.60;28.81
83185;BME280;73080;48.768;11.528;2023-10-13T11:49:09;96961.91;;;25.88;28.70
83185;BME280;73080;48.768;11.528;2023-10-13T11:51:35;96948.06;;;25.73;28.53
83185;BME280;73080;48.768;11.528;2023-10-13T11:54:00;96954.00;;;25.67;28.12
83185;BME280;73080;48.768;11.528;2023-10-13T11:56:25;96947.66;;;25.47;27.99
83185;BME280;73080;48.768;11.528;2023-10-13T11:58:51;96941.44;;;25.99;28.79
83185;BME280;73080;48.768;11.528;2023-10-13T12:01:17;96940.59;;;25.95;28.61
83185;BME280;73080;48.768;11.528;2023-10-13T12:03:44;96939.25;;;26.17;27.93
83185;BME280;73080;48.768;11.528;2023-10-13T12:06:09;96933.25;;;26.08;28.32
83185;BME280;73080;48.768;11.528;2023-10-13T12:08:34;96934.94;;;26.00;28.70
83185;BME280;73080;48.768;11.528;2023-10-13T12:11:00;96927.00;;;26.19;28.22
83185;BME280;73080;48.768;11.528;2023-10-13T12:13:25;96926.47;;;25.86;27.80
83185;BME280;73080;48.768;11.528;2023-10-13T12:15:50;96927.22;;;25.58;28.26
83185;BME280;73080;48.768;11.528;2023-10-13T12:18:16;96919.09;;;26.26;29.05
83185;BME280;73080;48.768;11.528;2023-10-13T12:20:41;96918.09;;;26.31;28.63
83185;BME280;73080;48.768;11.528;2023-10-13T12:23:06;96920.66;;;26.71;28.24
83185;BME280;73080;48.768;11.528;2023-10-13T12:25:32;96909.13;;;26.27;27.23
83185;BME280;73080;48.768;11.528;2023-10-13T12:27:58;96917.16;;;26.55;27.68
83185;BME280;73080;48.768;11.528;2023-10-13T12:30:23;96900.28;;;26.26;27.80
83185;BME280;73080;48.768;11.528;2023-10-13T12:32:50;96908.13;;;26.47;28.49
83185;BME280;73080;48.768;11.528;2023-10-13T12:35:15;96897.19;;;26.40;27.22
83185;BME280;73080;48.768;11.528;2023-10-13T12:37:40;96895.84;;;26.97;26.67
83185;BME280;73080;48.768;11.528;2023-10-13T12:40:10;96889.75;;;27.00;27.47
83185;BME280;73080;48.768;11.528;2023-10-13T12:42:37;96892.09;;;27.02;26.93
83185;BME280;73080;48.768;11.528;2023-10-13T12:45:02;96888.38;;;26.91;26.61
83185;BME280;73080;48.768;11.528;2023-10-13T12:47:33;96886.28;;;26.84;27.42
83185;BME280;73080;48.768;11.528;2023-10-13T12:49:58;96880.31;;;27.06;27.34
83185;BME280;73080;48.768;11.528;2023-10-13T12:52:24;96879.59;;;26.94;27.35
83185;BME280;73080;48.768;11.528;2023-10-13T12:54:49;96875.75;;;26.60;27.10
83185;BME280;73080;48.768;11.528;2023-10-13T12:57:14;96873.03;;;26.75;26.70
83185;BME280;73080;48.768;11.528;2023-10-13T12:59:40;96867.66;;;26.60;27.44